createdAt,value
2018-11-26T00:01:55.706Z,36.07
2018-11-26T00:04:23.112Z,36.03
2018-11-26T00:06:52.159Z,34.40
2018-11-26T00:09:19.561Z,34.33
2018-11-26T00:11:46.989Z,35.50
2018-11-26T00:14:14.390Z,37.10
2018-11-26T00:16:41.846Z,35.27
2018-11-26T00:19:09.273Z,33.17
2018-11-26T00:21:36.691Z,35.53
2018-11-26T00:24:04.113Z,35.57
2018-11-26T00:26:31.545Z,35.03
2018-11-26T00:28:58.942Z,32.97
2018-11-26T00:31:26.385Z,34.40
2018-11-26T00:33:53.791Z,34.40
2018-11-26T00:36:21.234Z,34.27
2018-11-26T00:38:48.646Z,34.43
2018-11-26T00:41:16.090Z,35.47
2018-11-26T00:43:43.505Z,34.47
2018-11-26T00:46:10.965Z,34.30
2018-11-26T00:48:38.394Z,34.50
2018-11-26T00:51:06.234Z,34.30
2018-11-26T00:53:33.646Z,32.87
2018-11-26T00:56:01.143Z,34.80
2018-11-26T00:58:28.546Z,33.90
2018-11-26T01:00:55.986Z,33.70
2018-11-26T01:03:23.478Z,33.33
2018-11-26T01:05:50.899Z,34.33
2018-11-26T01:08:18.347Z,33.83
2018-11-26T01:10:45.761Z,33.13
2018-11-26T01:13:13.209Z,31.90
2018-11-26T01:15:40.674Z,31.87
2018-11-26T01:18:08.165Z,32.50
2018-11-26T01:20:35.690Z,33.80
2018-11-26T01:23:03.166Z,32.57
2018-11-26T01:25:30.588Z,31.60
2018-11-26T01:27:58.022Z,31.73
2018-11-26T01:30:25.423Z,32.13
2018-11-26T01:32:52.886Z,32.63
2018-11-26T01:35:20.309Z,31.40
2018-11-26T01:37:47.737Z,31.07
2018-11-26T01:40:22.059Z,31.03
2018-11-26T01:42:49.702Z,31.40
2018-11-26T01:45:17.169Z,29.60
2018-11-26T01:47:44.621Z,31.87
2018-11-26T01:50:12.061Z,30.73
2018-11-26T01:52:39.497Z,30.93
2018-11-26T01:55:08.291Z,30.20
2018-11-26T01:57:35.786Z,30.40
2018-11-26T02:00:09.630Z,29.47
2018-11-26T02:02:37.045Z,30.07
2018-11-26T02:05:04.855Z,31.03
2018-11-26T02:07:32.307Z,30.67
2018-11-26T02:09:59.717Z,30.47
2018-11-26T02:12:27.159Z,30.67
2018-11-26T02:14:54.602Z,30.90
2018-11-26T02:17:22.030Z,29.40
2018-11-26T02:19:49.447Z,30.17
2018-11-26T02:22:16.878Z,29.37
2018-11-26T02:24:44.297Z,28.80
2018-11-26T02:27:11.741Z,29.13
2018-11-26T02:29:39.161Z,28.17
2018-11-26T02:32:06.619Z,30.27
2018-11-26T02:34:34.054Z,28.00
2018-11-26T02:37:01.482Z,25.70
2018-11-26T02:39:28.885Z,28.47
2018-11-26T02:41:56.309Z,27.90
2018-11-26T02:44:23.734Z,27.10
2018-11-26T02:46:51.170Z,27.17
2018-11-26T02:49:18.567Z,26.97
2018-11-26T02:51:46.004Z,27.97
2018-11-26T02:54:13.447Z,27.07
2018-11-26T02:56:40.883Z,26.47
2018-11-26T02:59:08.305Z,24.83
2018-11-26T03:01:35.730Z,25.73
2018-11-26T03:04:03.166Z,25.77
2018-11-26T03:06:30.634Z,24.43
2018-11-26T03:08:58.054Z,24.30
2018-11-26T03:11:25.906Z,23.43
2018-11-26T03:13:53.321Z,23.37
2018-11-26T03:16:20.757Z,21.73
2018-11-26T03:18:48.164Z,22.57
2018-11-26T03:21:15.591Z,21.47
2018-11-26T03:23:42.985Z,20.70
2018-11-26T03:26:10.425Z,20.73
2018-11-26T03:28:37.894Z,20.13
2018-11-26T03:31:06.986Z,21.00
2018-11-26T03:33:34.446Z,20.93
2018-11-26T03:36:01.854Z,19.67
2018-11-26T03:38:39.494Z,19.07
2018-11-26T03:41:07.038Z,21.17
2018-11-26T03:43:34.454Z,20.03
2018-11-26T03:46:01.890Z,19.83
2018-11-26T03:48:29.339Z,18.97
2018-11-26T03:50:56.767Z,17.77
2018-11-26T03:53:24.226Z,19.10
2018-11-26T03:55:51.638Z,18.77
2018-11-26T03:58:19.071Z,18.80
2018-11-26T04:00:51.046Z,16.67
2018-11-26T04:03:18.486Z,17.13
2018-11-26T04:05:45.894Z,16.77
2018-11-26T04:08:13.317Z,17.10
2018-11-26T04:10:40.728Z,16.17
2018-11-26T04:13:08.158Z,18.13
2018-11-26T04:15:35.578Z,18.63
2018-11-26T04:18:03.034Z,16.73
2018-11-26T04:20:30.454Z,17.53
2018-11-26T04:22:57.898Z,18.20
2018-11-26T04:25:25.311Z,18.83
2018-11-26T04:27:52.742Z,18.30
2018-11-26T04:30:20.159Z,18.00
2018-11-26T04:32:47.579Z,19.33
2018-11-26T04:35:14.995Z,17.90
2018-11-26T04:37:42.427Z,18.77
2018-11-26T04:40:09.977Z,18.50
2018-11-26T04:42:37.670Z,19.03
2018-11-26T04:45:06.657Z,19.20
2018-11-26T04:47:34.090Z,19.20
2018-11-26T04:50:01.525Z,19.13
2018-11-26T04:52:28.993Z,19.37
2018-11-26T04:54:56.395Z,19.13
2018-11-26T04:57:23.812Z,18.83
2018-11-26T04:59:51.218Z,19.20
2018-11-26T05:02:18.651Z,19.27
2018-11-26T05:04:46.050Z,19.63
2018-11-26T05:07:13.507Z,19.47
2018-11-26T05:09:40.918Z,17.63
2018-11-26T05:12:08.414Z,19.03
2018-11-26T05:14:35.874Z,18.97
2018-11-26T05:17:03.354Z,18.53
2018-11-26T05:19:30.764Z,19.00
2018-11-26T05:21:58.225Z,17.13
2018-11-26T05:24:25.621Z,16.70
2018-11-26T05:26:53.062Z,18.23
2018-11-26T05:29:20.452Z,17.37
2018-11-26T05:31:47.917Z,17.73
2018-11-26T05:34:15.323Z,17.87
2018-11-26T05:36:42.762Z,17.00
2018-11-26T05:39:10.170Z,16.73
2018-11-26T05:41:37.589Z,17.60
2018-11-26T05:44:05.038Z,17.20
2018-11-26T05:46:32.475Z,16.37
2018-11-26T05:48:59.901Z,17.17
2018-11-26T05:51:27.317Z,16.40
2018-11-26T05:53:54.742Z,17.47
2018-11-26T05:56:22.171Z,16.90
2018-11-26T05:58:49.582Z,17.17
2018-11-26T06:01:17.040Z,17.27
2018-11-26T06:03:44.465Z,16.37
2018-11-26T06:06:11.898Z,17.03
2018-11-26T06:08:39.321Z,16.73
2018-11-26T06:11:06.749Z,16.63
2018-11-26T06:13:34.170Z,17.30
2018-11-26T06:16:01.620Z,17.13
2018-11-26T06:18:29.042Z,16.97
2018-11-26T06:20:56.441Z,16.13
2018-11-26T06:23:23.874Z,16.03
2018-11-26T06:25:51.290Z,15.63
2018-11-26T06:28:18.723Z,16.50
2018-11-26T06:30:46.154Z,15.30
2018-11-26T06:33:13.599Z,15.53
2018-11-26T06:35:41.011Z,15.53
2018-11-26T06:38:08.462Z,15.03
2018-11-26T06:40:35.882Z,15.33
2018-11-26T06:43:03.449Z,16.47
2018-11-26T06:45:30.886Z,15.50
2018-11-26T06:47:58.324Z,16.03
2018-11-26T06:50:25.742Z,14.57
2018-11-26T06:52:53.189Z,15.87
2018-11-26T06:55:21.009Z,16.40
2018-11-26T06:57:48.511Z,16.13
2018-11-26T07:00:17.212Z,15.10
2018-11-26T07:02:44.685Z,16.70
2018-11-26T07:05:16.158Z,15.80
2018-11-26T07:07:43.698Z,17.07
2018-11-26T07:10:11.921Z,15.73
2018-11-26T07:12:39.438Z,17.27
2018-11-26T07:15:12.384Z,16.53
2018-11-26T07:17:39.915Z,17.73
2018-11-26T07:20:08.989Z,19.43
2018-11-26T07:22:36.434Z,17.03
2018-11-26T07:25:05.782Z,17.27
2018-11-26T07:27:33.217Z,18.33
2018-11-26T07:30:00.626Z,17.47
2018-11-26T07:32:28.082Z,18.37
2018-11-26T07:34:55.538Z,17.47
2018-11-26T07:37:22.967Z,17.87
2018-11-26T07:39:50.381Z,17.10
2018-11-26T07:42:17.803Z,17.60
2018-11-26T07:44:45.230Z,17.90
2018-11-26T07:47:12.675Z,17.53
2018-11-26T07:49:40.109Z,15.90
2018-11-26T07:52:07.533Z,16.30
2018-11-26T07:54:34.937Z,15.87
2018-11-26T07:57:02.335Z,15.03
2018-11-26T07:59:29.769Z,14.47
2018-11-26T08:01:57.178Z,14.70
2018-11-26T08:04:24.612Z,15.80
2018-11-26T08:06:52.014Z,15.50
2018-11-26T08:09:19.449Z,14.90
2018-11-26T08:11:46.857Z,14.03
2018-11-26T08:14:14.280Z,13.80
2018-11-26T08:16:41.693Z,14.30
2018-11-26T08:19:09.130Z,13.80
2018-11-26T08:21:36.538Z,14.27
2018-11-26T08:24:04.211Z,14.27
2018-11-26T08:26:31.618Z,15.23
2018-11-26T08:28:59.058Z,15.03
2018-11-26T08:31:26.560Z,13.80
2018-11-26T08:33:53.989Z,14.13
2018-11-26T08:36:27.106Z,14.63
2018-11-26T08:39:00.605Z,13.37
2018-11-26T08:41:33.665Z,13.97
2018-11-26T08:44:09.563Z,14.67
2018-11-26T08:46:40.071Z,12.63
2018-11-26T08:49:10.690Z,14.00
2018-11-26T08:51:38.348Z,14.43
2018-11-26T08:54:06.042Z,14.67
2018-11-26T08:56:33.478Z,15.47
2018-11-26T08:59:00.916Z,15.90
2018-11-26T09:01:39.072Z,16.00
2018-11-26T09:04:09.244Z,16.17
2018-11-26T09:06:37.014Z,14.87
2018-11-26T09:09:07.898Z,14.53
2018-11-26T09:11:35.379Z,15.43
2018-11-26T09:14:04.249Z,16.83
2018-11-26T09:16:31.654Z,15.67
2018-11-26T09:18:59.103Z,15.93
2018-11-26T09:21:26.497Z,17.23
2018-11-26T09:23:53.930Z,17.20
2018-11-26T09:26:21.350Z,17.17
2018-11-26T09:28:48.769Z,17.73
2018-11-26T09:31:16.182Z,18.60
2018-11-26T09:33:43.601Z,19.43
2018-11-26T09:36:11.035Z,19.20
2018-11-26T09:38:38.447Z,17.93
2018-11-26T09:41:05.938Z,19.40
2018-11-26T09:43:33.414Z,17.83
2018-11-26T09:46:00.821Z,18.20
2018-11-26T09:48:28.279Z,18.50
2018-11-26T09:50:55.672Z,18.07
2018-11-26T09:53:23.064Z,17.07
2018-11-26T09:55:50.511Z,17.97
2018-11-26T09:58:17.923Z,20.03
2018-11-26T10:00:45.377Z,17.93
2018-11-26T10:03:12.820Z,16.73
2018-11-26T10:05:40.271Z,18.60
2018-11-26T10:08:07.678Z,17.80
2018-11-26T10:10:35.114Z,17.33
2018-11-26T10:13:02.595Z,17.03
2018-11-26T10:15:30.218Z,17.30
2018-11-26T10:17:57.609Z,17.07
2018-11-26T10:20:25.043Z,17.17
2018-11-26T10:22:52.931Z,17.17
2018-11-26T10:25:21.254Z,16.37
2018-11-26T10:27:48.723Z,17.17
2018-11-26T10:30:18.426Z,17.10
2018-11-26T10:32:46.498Z,16.50
2018-11-26T10:35:14.933Z,17.00
2018-11-26T10:37:42.470Z,17.53
2018-11-26T10:40:27.486Z,16.70
2018-11-26T10:42:54.928Z,16.53
2018-11-26T10:45:23.274Z,15.73
2018-11-26T10:47:50.721Z,15.87
2018-11-26T10:50:19.574Z,16.60
2018-11-26T10:52:48.271Z,15.97
2018-11-26T10:55:17.818Z,16.23
2018-11-26T10:57:45.279Z,15.60
2018-11-26T11:00:20.333Z,15.87
2018-11-26T11:02:48.022Z,15.57
2018-11-26T11:05:15.498Z,14.97
2018-11-26T11:07:42.901Z,15.53
2018-11-26T11:10:43.285Z,15.40
2018-11-26T11:13:10.707Z,15.33
2018-11-26T11:15:38.153Z,15.00
2018-11-26T11:18:08.006Z,14.57
2018-11-26T11:20:36.902Z,14.57
2018-11-26T11:23:04.646Z,13.40
2018-11-26T11:25:32.102Z,13.73
2018-11-26T11:27:59.528Z,13.80
2018-11-26T11:30:28.034Z,14.17
2018-11-26T11:32:55.435Z,14.17
2018-11-26T11:35:22.978Z,12.87
2018-11-26T11:37:51.109Z,12.93
2018-11-26T11:40:22.819Z,13.47
2018-11-26T11:42:50.247Z,14.30
2018-11-26T11:45:17.877Z,13.10
2018-11-26T11:47:45.319Z,12.77
2018-11-26T11:50:13.825Z,13.63
2018-11-26T11:52:41.258Z,12.90
2018-11-26T11:55:13.834Z,12.97
2018-11-26T11:57:41.358Z,13.10
2018-11-26T12:00:15.379Z,14.47
2018-11-26T12:02:42.823Z,13.33
2018-11-26T12:05:11.823Z,14.50
2018-11-26T12:07:39.269Z,15.23
2018-11-26T12:10:08.555Z,14.60
2018-11-26T12:12:36.031Z,14.10
2018-11-26T12:15:04.011Z,14.97
2018-11-26T12:17:31.445Z,14.13
2018-11-26T12:19:58.862Z,14.33
2018-11-26T12:22:26.288Z,15.30
2018-11-26T12:24:54.043Z,12.80
2018-11-26T12:27:21.446Z,13.30
2018-11-26T12:29:48.851Z,14.07
2018-11-26T12:32:16.292Z,13.23
2018-11-26T12:34:43.691Z,13.70
2018-11-26T12:37:11.111Z,14.13
2018-11-26T12:39:38.547Z,13.93
2018-11-26T12:42:06.047Z,13.07
2018-11-26T12:44:43.767Z,12.43
2018-11-26T12:47:11.228Z,13.57
2018-11-26T12:49:38.643Z,12.57
2018-11-26T12:52:06.119Z,11.77
2018-11-26T12:54:33.519Z,13.33
2018-11-26T12:57:00.947Z,12.37
2018-11-26T12:59:28.356Z,12.17
2018-11-26T13:01:55.789Z,12.70
2018-11-26T13:04:23.192Z,12.77
2018-11-26T13:06:50.632Z,13.77
2018-11-26T13:09:18.035Z,12.77
2018-11-26T13:11:45.465Z,12.10
2018-11-26T13:14:12.900Z,12.27
2018-11-26T13:16:40.334Z,11.80
2018-11-26T13:19:07.733Z,12.20
2018-11-26T13:21:35.159Z,11.90
2018-11-26T13:24:02.631Z,12.13
2018-11-26T13:26:30.063Z,12.30
2018-11-26T13:28:57.471Z,12.17
2018-11-26T13:31:24.951Z,11.83
2018-11-26T13:33:52.455Z,11.77
2018-11-26T13:36:19.875Z,11.80
2018-11-26T13:38:47.278Z,11.67
2018-11-26T13:41:14.704Z,11.30
2018-11-26T13:43:42.154Z,12.93
2018-11-26T13:46:09.612Z,11.63
2018-11-26T13:48:37.028Z,12.67
2018-11-26T13:51:04.849Z,12.23
2018-11-26T13:53:32.246Z,12.73
2018-11-26T13:55:59.746Z,13.13
2018-11-26T13:58:27.163Z,12.90
2018-11-26T14:00:54.597Z,12.90
2018-11-26T14:03:22.123Z,12.97
2018-11-26T14:05:49.547Z,14.30
2018-11-26T14:08:16.940Z,13.27
2018-11-26T14:10:44.363Z,12.90
2018-11-26T14:13:13.245Z,12.63
2018-11-26T14:15:40.728Z,12.50
2018-11-26T14:18:08.139Z,12.70
2018-11-26T14:20:35.559Z,12.67
2018-11-26T14:23:03.008Z,13.50
2018-11-26T14:25:30.423Z,12.70
2018-11-26T14:27:57.855Z,13.20
2018-11-26T14:30:27.363Z,12.00
2018-11-26T14:32:54.971Z,12.77
2018-11-26T14:35:22.435Z,14.90
2018-11-26T14:37:51.215Z,12.63
2018-11-26T14:40:21.334Z,13.43
2018-11-26T14:42:48.761Z,12.97
2018-11-26T14:45:16.203Z,12.60
2018-11-26T14:47:44.011Z,13.00
2018-11-26T14:50:13.460Z,15.53
2018-11-26T14:52:41.899Z,15.70
2018-11-26T14:55:15.568Z,14.07
2018-11-26T14:57:42.985Z,13.27
2018-11-26T15:00:13.892Z,16.53
2018-11-26T15:02:41.449Z,15.93
2018-11-26T15:05:09.213Z,15.60
2018-11-26T15:07:36.695Z,16.40
2018-11-26T15:10:06.476Z,16.03
2018-11-26T15:12:33.907Z,14.30
2018-11-26T15:15:01.312Z,16.77
2018-11-26T15:17:28.735Z,13.63
2018-11-26T15:19:56.140Z,14.93
2018-11-26T15:22:23.563Z,14.60
2018-11-26T15:24:50.974Z,14.90
2018-11-26T15:27:18.399Z,14.83
2018-11-26T15:29:45.824Z,14.30
2018-11-26T15:32:13.324Z,13.70
2018-11-26T15:34:40.729Z,14.23
2018-11-26T15:37:08.187Z,14.60
2018-11-26T15:39:35.584Z,14.20
2018-11-26T15:42:03.051Z,15.87
2018-11-26T15:44:30.467Z,15.10
2018-11-26T15:46:57.895Z,17.43
2018-11-26T15:49:25.306Z,17.23
2018-11-26T15:51:52.739Z,24.37
2018-11-26T15:54:20.144Z,19.40
2018-11-26T15:56:47.676Z,40.40
2018-11-26T15:59:15.083Z,43.90
2018-11-26T16:01:42.523Z,25.27
2018-11-26T16:04:09.932Z,18.30
2018-11-26T16:06:37.368Z,19.53
2018-11-26T16:09:08.323Z,26.87
2018-11-26T16:11:35.823Z,24.90
2018-11-26T16:14:03.259Z,20.27
2018-11-26T16:16:30.691Z,19.33
2018-11-26T16:18:58.104Z,18.13
2018-11-26T16:21:25.571Z,19.63
2018-11-26T16:23:52.980Z,20.20
2018-11-26T16:26:20.413Z,18.90
2018-11-26T16:28:47.824Z,18.97
2018-11-26T16:31:15.275Z,20.33
2018-11-26T16:33:42.743Z,22.07
2018-11-26T16:36:10.178Z,19.53
2018-11-26T16:38:37.587Z,27.03
2018-11-26T16:41:05.059Z,18.13
2018-11-26T16:43:32.480Z,20.13
2018-11-26T16:45:59.935Z,24.57
2018-11-26T16:48:27.338Z,21.87
2018-11-26T16:50:54.791Z,20.17
2018-11-26T16:53:22.203Z,19.37
2018-11-26T16:55:49.653Z,20.00
2018-11-26T16:58:17.063Z,19.03
2018-11-26T17:00:44.488Z,19.53
2018-11-26T17:03:11.982Z,19.67
2018-11-26T17:05:40.710Z,19.23
2018-11-26T17:08:09.515Z,20.23
2018-11-26T17:10:36.959Z,20.17
2018-11-26T17:13:04.875Z,20.80
2018-11-26T17:15:32.276Z,20.77
2018-11-26T17:17:59.691Z,18.97
2018-11-26T17:20:27.111Z,19.10
2018-11-26T17:22:54.542Z,19.63
2018-11-26T17:25:21.951Z,20.17
2018-11-26T17:27:49.731Z,19.03
2018-11-26T17:30:21.597Z,18.63
2018-11-26T17:32:50.544Z,19.77
2018-11-26T17:35:17.955Z,18.93
2018-11-26T17:37:45.400Z,18.07
2018-11-26T17:40:18.875Z,19.63
2018-11-26T17:42:46.338Z,19.47
2018-11-26T17:45:14.215Z,19.57
2018-11-26T17:47:43.199Z,20.23
2018-11-26T17:50:12.451Z,18.13
2018-11-26T17:52:39.902Z,19.10
2018-11-26T17:55:08.016Z,19.47
2018-11-26T17:57:35.467Z,19.37
2018-11-26T18:00:03.434Z,20.57
2018-11-26T18:02:30.871Z,18.93
2018-11-26T18:04:58.274Z,19.00
2018-11-26T18:07:25.716Z,18.23
2018-11-26T18:09:53.124Z,18.00
2018-11-26T18:12:20.567Z,19.07
2018-11-26T18:14:47.992Z,19.53
2018-11-26T18:17:15.427Z,19.40
2018-11-26T18:19:42.857Z,19.13
2018-11-26T18:22:10.315Z,19.03
2018-11-26T18:24:37.702Z,21.50
2018-11-26T18:27:07.388Z,19.63
2018-11-26T18:29:34.788Z,20.80
2018-11-26T18:32:02.255Z,20.33
2018-11-26T18:34:29.713Z,21.53
2018-11-26T18:36:57.122Z,18.90
2018-11-26T18:39:24.560Z,20.90
2018-11-26T18:41:51.969Z,19.60
2018-11-26T18:44:19.419Z,19.93
2018-11-26T18:46:46.839Z,20.63
2018-11-26T18:49:14.289Z,19.73
2018-11-26T18:51:41.695Z,22.00
2018-11-26T18:54:09.299Z,21.70
2018-11-26T18:56:36.719Z,20.97
2018-11-26T18:59:04.232Z,21.17
2018-11-26T19:01:31.671Z,20.57
2018-11-26T19:03:59.111Z,21.80
2018-11-26T19:06:26.515Z,22.80
2018-11-26T19:08:53.975Z,23.20
2018-11-26T19:11:21.415Z,24.43
2018-11-26T19:13:53.815Z,24.43
2018-11-26T19:16:23.276Z,23.33
2018-11-26T19:18:51.303Z,23.90
2018-11-26T19:21:18.711Z,24.47
2018-11-26T19:23:46.163Z,25.07
2018-11-26T19:26:13.571Z,23.33
2018-11-26T19:28:41.028Z,23.83
2018-11-26T19:31:08.468Z,23.47
2018-11-26T19:33:35.996Z,23.57
2018-11-26T19:36:03.424Z,25.47
2018-11-26T19:38:30.901Z,23.50
2018-11-26T19:40:58.309Z,22.73
2018-11-26T19:43:25.778Z,24.13
2018-11-26T19:45:53.232Z,24.07
2018-11-26T19:48:20.718Z,23.83
2018-11-26T19:50:48.144Z,24.30
2018-11-26T19:55:48.747Z,22.07
2018-11-26T19:58:16.224Z,24.27
2018-11-26T20:00:43.685Z,24.97
2018-11-26T20:03:20.976Z,24.47
2018-11-26T20:05:58.402Z,25.23
2018-11-26T20:08:25.847Z,25.40
2018-11-26T20:10:53.289Z,25.00
2018-11-26T20:13:20.691Z,23.57
2018-11-26T20:15:48.560Z,23.90
2018-11-26T20:18:15.963Z,26.63
2018-11-26T20:20:43.408Z,27.53
2018-11-26T20:23:10.831Z,24.13
2018-11-26T20:25:38.340Z,25.97
2018-11-26T20:28:05.798Z,27.23
2018-11-26T20:30:33.228Z,24.93
2018-11-26T20:33:00.642Z,25.73
2018-11-26T20:35:28.091Z,25.90
2018-11-26T20:37:55.493Z,26.00
2018-11-26T20:40:22.930Z,27.17
2018-11-26T20:42:52.848Z,25.77
2018-11-26T20:45:20.319Z,25.57
2018-11-26T20:47:48.656Z,25.87
2018-11-26T20:50:18.381Z,26.80
2018-11-26T20:52:45.791Z,25.93
2018-11-26T20:55:14.736Z,26.43
2018-11-26T20:57:42.179Z,31.07
2018-11-26T21:00:14.239Z,32.33
2018-11-26T21:02:41.651Z,30.80
2018-11-26T21:05:09.139Z,30.40
2018-11-26T21:07:36.547Z,25.13
2018-11-26T21:10:04.491Z,26.13
2018-11-26T21:12:31.899Z,26.10
2018-11-26T21:14:59.319Z,23.47
2018-11-26T21:17:26.743Z,24.13
2018-11-26T21:19:54.180Z,24.43
2018-11-26T21:22:21.575Z,23.03
2018-11-26T21:24:49.052Z,25.00
2018-11-26T21:27:16.472Z,25.83
2018-11-26T21:29:43.940Z,25.13
2018-11-26T21:32:11.407Z,26.03
2018-11-26T21:34:38.829Z,24.33
2018-11-26T21:37:06.283Z,23.10
2018-11-26T21:39:33.704Z,25.33
2018-11-26T21:42:01.098Z,27.47
2018-11-26T21:44:28.545Z,24.10
2018-11-26T21:46:56.007Z,25.20
2018-11-26T21:49:23.471Z,24.23
2018-11-26T21:51:50.884Z,25.53
2018-11-26T21:54:18.295Z,23.53
2018-11-26T21:56:45.724Z,28.80
2018-11-26T21:59:13.132Z,27.97
2018-11-26T22:01:40.560Z,25.37
2018-11-26T22:04:07.962Z,27.60
2018-11-26T22:06:35.375Z,26.27
2018-11-26T22:09:03.627Z,28.23
2018-11-26T22:11:31.056Z,27.63
2018-11-26T22:13:58.501Z,26.67
2018-11-26T22:16:25.937Z,24.47
2018-11-26T22:18:53.340Z,27.80
2018-11-26T22:21:20.788Z,25.67
2018-11-26T22:23:48.191Z,22.90
2018-11-26T22:26:15.688Z,24.23
2018-11-26T22:28:43.099Z,27.70
2018-11-26T22:31:10.531Z,25.37
2018-11-26T22:33:37.957Z,27.77
2018-11-26T22:36:05.600Z,26.70
2018-11-26T22:38:33.040Z,27.70
2018-11-26T22:41:00.512Z,27.83
2018-11-26T22:43:27.908Z,27.97
2018-11-26T22:45:55.341Z,27.03
2018-11-26T22:48:22.759Z,27.23
2018-11-26T22:50:50.212Z,25.83
2018-11-26T22:53:17.618Z,25.37
2018-11-26T22:55:45.033Z,25.33
2018-11-26T22:58:14.070Z,27.80
2018-11-26T23:00:50.090Z,25.63
2018-11-26T23:03:18.730Z,28.73
2018-11-26T23:05:46.209Z,28.37
2018-11-26T23:08:13.643Z,28.03
2018-11-26T23:10:41.070Z,31.63
2018-11-26T23:13:08.856Z,26.77
2018-11-26T23:15:36.419Z,27.27
2018-11-26T23:18:04.195Z,28.27
2018-11-26T23:20:31.603Z,28.63
2018-11-26T23:22:59.038Z,29.27
2018-11-26T23:25:26.439Z,29.57
2018-11-26T23:27:53.868Z,28.53
2018-11-26T23:30:25.507Z,28.33
2018-11-26T23:32:59.723Z,29.40
2018-11-26T23:35:27.178Z,28.30
2018-11-26T23:37:54.611Z,28.57
2018-11-26T23:40:22.039Z,29.93
2018-11-26T23:42:49.486Z,30.47
2018-11-26T23:45:18.984Z,28.57
2018-11-26T23:47:46.443Z,30.57
2018-11-26T23:50:14.343Z,29.03
2018-11-26T23:52:42.206Z,29.90
2018-11-26T23:55:12.484Z,29.53
2018-11-26T23:57:40.007Z,30.20
